Vancouver, WA

09:34 PM PDT del 02 Settembre 2014 (GMT -0700)
Columbia Tech Center | Change Station
CLOSE
Current Station
Stazione meteo personale
Location: Vancouver, WA
Altitudine: 276 ft
Stazioni meteo nelle vicinanze

Alt. 276 ft 45.62 °N, 122.48 °W | Updated 16 seconds ago

Partly Cloudy
Parzialmente nuvoloso
62.2 °F
Sembra 62.2 °F
N
9.0
Vento Variabile Vento da ONO
Gusts 19.0 mph

Oggi
Massima -- | Minima -- °F
--% Possibilità di precip.
Ieri
Massima -- | Minima -- °F
Precip. -- in
6:32 AM 7:45 PM
Primo quarto, 58% visible
Pressione 29.96 in
Visibilità 10.0 miglia
Nuvole Alcuni 3000 ft
Alcuni 5000 ft
Punto di rugiada 51 °F
Umidità 66%
Piovosità 0.00 in
Spessore del manto nevoso Non disponibile.
Raggi UV 0 fuori da 12
Polline 3.60 fuori da 12
Qualità dell'aria Non disponibile.
Flu Activity Non disponibile.
METAR KPDX 030353Z 28009KT 10SM FEW030 FEW050 18/11 A2996 RMK AO2 SLP143 T01830111

More Conditions Fewer Conditions

Pressione 29.96 in
Visibilità 10.0 miglia
Nuvole Alcuni 3000 ft
Alcuni 5000 ft
Punto di rugiada 51 °F
Umidità 66%
Piovosità 0.00 in
Spessore del manto nevoso Non disponibile.
Raggi UV 0 fuori da 12
Polline 3.60 fuori da 12
Qualità dell'aria Non disponibile.
Flu Activity Non disponibile.
METAR KPDX 030353Z 28009KT 10SM FEW030 FEW050 18/11 A2996 RMK AO2 SLP143 T01830111

More Conditions Fewer Conditions

10-Day Weather Forecast

Almanac

Astronomia

Sep. 02, 2014 Alba Tramonto
Ora attuale 06:32 PDT 19:45 PDT
Crepuscolo civile 06:02 PDT 20:16 PDT
Crepuscolo nautico 05:25 PDT 20:52 PDT
Crepuscolo astronomico 04:46 PDT 21:31 PDT
Luna 14:43 PDT (9/2) Nessun tramonto lunare
Estensione della luce visibile 14h 14m
Lunghezza del giorno
13h 13m
Tomorrow will be 3m 6s shorter.
Primo quarto, 58% of the Moon is Illuminated
Set 3
Primo quarto
Set 8
Luna piena
Set 15
Ultimo quarto
Set 24
Nuovo
Ott 1
Primo quarto

Gli estremi di oggi

State Highs State Lows

Community

WunderPhotos

Upload Photos

1,749,870 foto caricate!

Nearby

Profondità neve

Stazione Profondità Altitudine
June Lake 0 in 3340 ft
Swift Creek 0 in 3770 ft
Spencer Meadow 0 in 3400 ft
Surprise Lakes 1 in 4250 ft
Lone Pine 0 in 3800 ft

Attività sismica

Città  Distanza Mag. Data & Ora
Non sono state riportate attività sismiche nelle vicinanze.
Minimo Magnitudo Mostrato è 2.5.

Temperature delle acque costiere

Località Temperatura
Nessun dato dalle stazioni

Stazioni meteo nelle vicinanze